Time;durP1;ratioP1;P1;durP2;ratioP2;P2;SDS_P1;SDS_P2;PMS_P1;PMS_P2;Temp;Humidity;BMP_temperature;BMP_pressure;BME280_temperature;BME280_humidity;BME280_pressure;Samples;Min_cycle;Max_cycle;Signal;HPM_P1;HPM_P2
2021/06/15 00:02:25;;;;;;;21.08;15.68;;;;;;;22.22;50.32;101874.13;5031575;27;124385;-65
2021/06/15 00:04:53;;;;;;;23.27;16.05;;;;;;;22.18;50.40;101875.38;5032382;27;114706;-65
2021/06/15 00:07:20;;;;;;;18.52;15.55;;;;;;;22.16;50.52;101866.53;5031667;27;114223;-65
2021/06/15 00:09:47;;;;;;;21.63;16.50;;;;;;;22.12;50.70;101865.06;5030026;28;124888;-65
2021/06/15 00:12:14;;;;;;;20.08;15.35;;;;;;;22.08;50.94;101858.19;5029726;28;123761;-66
2021/06/15 00:14:41;;;;;;;20.20;15.55;;;;;;;22.04;51.05;101867.47;5030006;28;114193;-65
2021/06/15 00:17:09;;;;;;;23.25;16.15;;;;;;;22.01;50.96;101870.44;5030120;27;114076;-65
2021/06/15 00:19:36;;;;;;;24.20;16.17;;;;;;;21.96;51.28;101866.25;5028917;27;124714;-65
2021/06/15 00:22:04;;;;;;;18.77;15.52;;;;;;;21.93;51.20;101866.47;5028625;27;123738;-65
2021/06/15 00:24:31;;;;;;;21.10;16.70;;;;;;;21.91;51.29;101868.44;5015114;28;113402;-65
2021/06/15 00:26:58;;;;;;;20.38;16.23;;;;;;;21.89;51.64;101870.41;5030054;27;114706;-65
2021/06/15 00:29:25;;;;;;;23.05;16.25;;;;;;;21.85;51.85;101866.22;5028070;27;123994;-65
2021/06/15 00:31:52;;;;;;;21.50;16.08;;;;;;;21.82;51.86;101869.13;5018441;27;122813;-65
2021/06/15 00:34:19;;;;;;;21.67;15.57;;;;;;;21.81;51.86;101872.81;5030694;27;114437;-65
2021/06/15 00:36:46;;;;;;;21.90;16.05;;;;;;;21.77;51.99;101872.19;5028077;28;113137;-65
2021/06/15 00:39:14;;;;;;;22.83;16.33;;;;;;;21.76;52.17;101869.63;5026316;27;123953;-65
2021/06/15 00:41:41;;;;;;;27.80;16.85;;;;;;;21.72;52.43;101868.13;5021558;27;123531;-65
2021/06/15 00:44:09;;;;;;;23.23;17.05;;;;;;;21.68;52.45;101872.00;5028044;27;115842;-65
2021/06/15 00:46:37;;;;;;;21.98;16.42;;;;;;;21.65;52.68;101875.81;5043167;27;114241;-65
2021/06/15 00:49:06;;;;;;;22.27;15.68;;;;;;;21.63;52.54;101879.63;5039270;27;124529;-65
2021/06/15 00:51:34;;;;;;;22.63;16.17;;;;;;;21.61;52.70;101882.41;5029894;28;124469;-65
2021/06/15 00:54:01;;;;;;;23.98;16.45;;;;;;;21.57;53.04;101871.00;5028072;27;114465;-65
2021/06/15 00:56:29;;;;;;;25.58;16.50;;;;;;;21.54;52.93;101865.84;5026394;27;113106;-65
2021/06/15 00:58:56;;;;;;;21.55;15.98;;;;;;;21.52;53.03;101872.31;5029094;27;123202;-66
2021/06/15 01:01:24;;;;;;;21.67;16.17;;;;;;;21.50;53.28;101880.53;5030045;27;123292;-65
2021/06/15 01:03:52;;;;;;;19.33;15.85;;;;;;;21.48;53.17;101881.63;5017804;28;115146;-65
2021/06/15 01:06:43;;;;;;;20.80;15.85;;;;;;;21.44;53.12;101891.78;5026414;28;114265;-65
2021/06/15 01:09:26;;;;;;;21.85;15.63;;;;;;;21.43;53.53;101890.00;5017931;27;122996;-65
2021/06/15 01:12:17;;;;;;;23.45;15.77;;;;;;;21.39;53.17;101893.91;5027365;27;123081;-65
2021/06/15 01:15:15;;;;;;;19.13;14.45;;;;;;;21.36;53.12;101892.31;5027274;27;114522;-65
2021/06/15 01:17:56;;;;;;;23.10;15.00;;;;;;;21.34;53.43;101886.19;5030447;27;114282;-65
2021/06/15 01:20:28;;;;;;;20.85;14.80;;;;;;;21.36;53.20;101888.72;5029813;28;123333;-65
2021/06/15 01:23:19;;;;;;;19.35;14.57;;;;;;;21.34;53.26;101891.56;5027986;27;124094;-65
2021/06/15 01:26:28;;;;;;;20.17;13.55;;;;;;;21.33;53.16;101905.16;5014503;28;113495;-65
2021/06/15 01:29:07;;;;;;;17.92;13.48;;;;;;;21.30;53.14;101900.81;5010300;27;113628;-65
2021/06/15 01:31:42;;;;;;;19.05;13.82;;;;;;;21.30;53.23;101899.97;5029367;27;124363;-65
2021/06/15 01:34:13;;;;;;;17.63;13.27;;;;;;;21.29;53.11;101903.66;5024898;27;123049;-66
2021/06/15 01:36:59;;;;;;;17.20;12.85;;;;;;;21.26;53.00;101893.09;5029569;27;118446;-65
2021/06/15 01:39:31;;;;;;;20.00;13.60;;;;;;;21.27;53.12;101894.84;5029651;28;115580;-65
2021/06/15 01:42:27;;;;;;;19.38;13.50;;;;;;;21.25;52.80;101897.63;5013723;27;124102;-65
2021/06/15 01:45:27;;;;;;;19.70;13.27;;;;;;;21.25;52.82;101896.75;5027236;22;123429;-71
2021/06/15 01:48:05;;;;;;;17.77;13.73;;;;;;;21.23;53.20;101899.59;4999627;28;114551;-71
2021/06/15 01:50:37;;;;;;;17.65;13.48;;;;;;;21.19;53.30;101904.34;4993123;28;113185;-71
2021/06/15 01:53:07;;;;;;;19.40;13.32;;;;;;;21.15;53.39;101908.22;5010544;28;124834;-71
2021/06/15 01:55:42;;;;;;;24.38;13.90;;;;;;;21.11;53.66;101904.00;5008916;28;123399;-70
2021/06/15 01:58:12;;;;;;;16.83;13.87;;;;;;;21.08;53.49;101911.44;5009471;28;117367;-70
2021/06/15 02:00:41;;;;;;;21.48;13.95;;;;;;;21.04;53.83;101905.44;5009508;28;113043;-71
2021/06/15 02:03:10;;;;;;;20.58;13.35;;;;;;;21.01;53.95;101908.34;5020161;28;125425;-71
2021/06/15 02:05:49;;;;;;;18.77;12.65;;;;;;;20.98;53.98;101900.50;5015239;28;124057;-70
2021/06/15 02:08:43;;;;;;;21.90;12.82;;;;;;;20.94;53.71;101909.78;5004052;28;113516;-70
2021/06/15 02:11:31;;;;;;;19.35;12.68;;;;;;;20.95;53.69;101922.28;5000316;28;113115;-70
2021/06/15 02:14:34;;;;;;;18.10;11.70;;;;;;;20.96;53.62;101923.97;4991813;28;124203;-70
2021/06/15 02:17:26;;;;;;;18.08;12.38;;;;;;;20.94;53.60;101936.69;5008731;28;124281;-70
2021/06/15 02:20:11;;;;;;;17.45;12.55;;;;;;;20.92;53.60;101917.94;4996232;28;113367;-70
2021/06/15 02:22:47;;;;;;;19.30;13.18;;;;;;;20.92;53.60;101925.19;5010296;28;113500;-70
2021/06/15 02:25:21;;;;;;;20.67;12.38;;;;;;;20.91;53.72;101923.47;5011751;28;124847;-70
2021/06/15 02:27:48;;;;;;;20.63;13.20;;;;;;;20.91;53.51;101926.16;5011554;28;122972;-70
2021/06/15 02:30:18;;;;;;;15.05;11.63;;;;;;;20.88;53.64;101926.38;5012448;28;114275;-71
2021/06/15 02:32:57;;;;;;;16.70;12.00;;;;;;;20.87;53.65;101932.72;5012672;28;114082;-70
2021/06/15 02:35:27;;;;;;;16.73;12.15;;;;;;;20.85;53.51;101931.97;5012511;28;126815;-70
2021/06/15 02:38:00;;;;;;;16.95;11.50;;;;;;;20.83;53.73;101939.28;5012260;28;124141;-71
2021/06/15 02:40:31;;;;;;;18.10;11.40;;;;;;;20.80;53.79;101935.84;5015708;28;114228;-71
2021/06/15 02:42:59;;;;;;;18.35;11.10;;;;;;;20.76;53.78;101939.75;4996756;28;114335;-71
2021/06/15 02:45:30;;;;;;;18.58;11.05;;;;;;;20.76;53.81;101934.34;5012136;28;123423;-70
2021/06/15 02:48:01;;;;;;;15.85;10.15;;;;;;;20.72;53.81;101932.84;5010338;28;124651;-70
2021/06/15 02:50:37;;;;;;;14.18;9.70;;;;;;;20.70;53.62;101950.06;5002386;28;116802;-71
2021/06/15 02:53:10;;;;;;;12.70;9.93;;;;;;;20.66;53.80;101938.66;5009814;28;113705;-70
2021/06/15 02:55:40;;;;;;;15.68;9.68;;;;;;;20.64;53.53;101935.22;5012157;28;124039;-70
2021/06/15 02:58:11;;;;;;;15.52;10.15;;;;;;;20.64;53.57;101935.22;4996942;28;126618;-71
2021/06/15 03:00:38;;;;;;;13.93;9.48;;;;;;;20.63;53.59;101932.66;5004619;28;113318;-71
2021/06/15 03:03:07;;;;;;;17.20;9.35;;;;;;;20.61;53.53;101940.81;5004331;28;113696;-70
2021/06/15 03:05:35;;;;;;;13.32;9.63;;;;;;;20.60;53.76;101939.09;5001830;28;124595;-70
2021/06/15 03:08:03;;;;;;;13.52;9.60;;;;;;;20.59;53.65;101937.34;5010325;28;123037;-70
2021/06/15 03:10:32;;;;;;;12.32;9.40;;;;;;;20.58;53.39;101935.63;5012090;28;113436;-71
2021/06/15 03:13:15;;;;;;;13.43;9.55;;;;;;;20.55;53.30;101935.81;5021205;28;114088;-71
2021/06/15 03:15:52;;;;;;;13.38;9.07;;;;;;;20.56;53.54;101942.94;5012909;28;124332;-71
2021/06/15 03:18:28;;;;;;;12.07;9.02;;;;;;;20.56;53.40;101937.56;5010035;28;126448;-71
2021/06/15 03:20:59;;;;;;;12.05;9.07;;;;;;;20.56;53.38;101942.94;5010674;28;114290;-71
2021/06/15 03:23:52;;;;;;;12.10;9.15;;;;;;;20.55;53.38;101951.97;5011011;28;114232;-71
2021/06/15 03:26:47;;;;;;;11.03;9.00;;;;;;;20.55;53.06;101949.28;5011123;28;123380;-71
2021/06/15 03:29:21;;;;;;;13.70;8.85;;;;;;;20.54;53.49;101950.25;5006034;28;123351;-71
2021/06/15 03:31:52;;;;;;;14.82;8.90;;;;;;;20.53;53.25;101959.28;5004104;28;113912;-72
2021/06/15 03:34:28;;;;;;;12.52;8.30;;;;;;;20.51;53.34;101966.59;5008117;28;116462;-71
2021/06/15 03:36:57;;;;;;;12.38;8.18;;;;;;;20.48;53.17;101945.31;5011233;28;123297;-71
2021/06/15 03:39:30;;;;;;;12.10;8.65;;;;;;;20.49;53.35;101949.72;5011795;28;123644;-71
2021/06/15 03:42:01;;;;;;;12.90;8.43;;;;;;;20.49;53.56;101950.56;4995425;28;113582;-71
2021/06/15 03:44:28;;;;;;;13.13;8.52;;;;;;;20.51;53.38;101955.84;5012062;28;114177;-71
2021/06/15 03:46:58;;;;;;;15.48;8.68;;;;;;;20.50;53.19;101959.53;5010655;28;124356;-71
2021/06/15 03:49:26;;;;;;;12.35;7.90;;;;;;;20.50;53.48;101956.84;5005267;28;124059;-71
2021/06/15 03:51:58;;;;;;;12.45;8.40;;;;;;;20.50;53.29;101964.91;5012926;28;114986;-71
2021/06/15 03:54:27;;;;;;;13.38;8.50;;;;;;;20.50;53.45;101964.91;5013030;28;114211;-71
2021/06/15 03:56:59;;;;;;;11.70;8.20;;;;;;;20.52;53.62;101968.34;5010881;28;124535;-71
2021/06/15 03:59:30;;;;;;;13.05;8.48;;;;;;;20.52;53.63;101976.41;5008269;28;124043;-70
2021/06/15 04:02:02;;;;;;;12.48;7.88;;;;;;;20.52;53.60;101984.50;5010127;28;114884;-71
2021/06/15 04:04:32;;;;;;;12.65;8.23;;;;;;;20.52;53.83;101984.50;5009014;28;114085;-70
2021/06/15 04:07:00;;;;;;;13.18;8.02;;;;;;;20.53;53.76;101989.78;5010252;28;123903;-71
2021/06/15 04:09:31;;;;;;;11.18;7.90;;;;;;;20.56;53.95;101986.00;5003344;28;123901;-71
2021/06/15 04:11:59;;;;;;;11.40;7.93;;;;;;;20.61;53.68;102000.06;5009989;28;115297;-71
2021/06/15 04:14:28;;;;;;;11.57;8.20;;;;;;;20.62;53.78;101996.38;5025559;28;114774;-71
2021/06/15 04:16:57;;;;;;;14.07;8.02;;;;;;;20.64;53.65;102002.50;5010416;28;124523;-71
2021/06/15 04:19:45;;;;;;;12.43;8.35;;;;;;;20.65;53.58;102006.94;5026008;28;124922;-71
2021/06/15 04:22:14;;;;;;;12.00;7.85;;;;;;;20.67;53.60;102007.69;5010640;28;114350;-71
2021/06/15 04:24:48;;;;;;;10.77;7.72;;;;;;;20.66;53.85;102003.25;5025397;28;112999;-70
2021/06/15 04:27:21;;;;;;;13.23;7.95;;;;;;;20.69;53.56;102013.81;5011299;28;124042;-71
2021/06/15 04:29:49;;;;;;;13.02;8.13;;;;;;;20.71;53.82;101997.56;5006538;28;123754;-71
2021/06/15 04:32:19;;;;;;;13.57;8.10;;;;;;;20.71;53.68;101995.72;5002200;28;114679;-71
2021/06/15 04:34:54;;;;;;;12.20;9.13;;;;;;;20.73;53.39;101990.25;5009389;28;114858;-71
2021/06/15 04:37:24;;;;;;;11.93;7.68;;;;;;;20.75;53.66;101986.47;5009958;28;124181;-71
2021/06/15 04:40:09;;;;;;;11.75;8.20;;;;;;;20.77;53.56;101989.91;5011608;28;123976;-71
2021/06/15 04:42:44;;;;;;;11.10;8.07;;;;;;;20.79;53.45;101987.13;5009793;28;114636;-70
2021/06/15 04:45:11;;;;;;;12.25;7.97;;;;;;;20.82;53.49;101986.06;4999107;28;114433;-71
2021/06/15 04:47:45;;;;;;;12.30;7.90;;;;;;;20.83;53.68;101990.47;4981256;28;123372;-70
2021/06/15 04:50:26;;;;;;;13.63;8.00;;;;;;;20.86;53.44;101992.94;4996581;28;123802;-70
2021/06/15 04:52:57;;;;;;;11.27;7.93;;;;;;;20.89;53.70;101981.94;5005112;28;114414;-71
2021/06/15 04:55:31;;;;;;;12.15;7.75;;;;;;;20.92;53.42;101970.97;4996397;28;114382;-70
2021/06/15 04:58:01;;;;;;;11.73;7.40;;;;;;;20.95;53.28;101981.53;5010261;28;124199;-70
2021/06/15 05:00:29;;;;;;;12.43;8.40;;;;;;;20.98;53.52;101973.22;4997733;28;124298;-68
2021/06/15 05:02:57;;;;;;;13.35;8.13;;;;;;;21.02;53.60;101982.81;5011639;28;115379;-68
2021/06/15 05:05:26;;;;;;;10.45;7.97;;;;;;;21.05;53.54;101982.59;5009320;28;115137;-68
2021/06/15 05:07:56;;;;;;;13.40;7.85;;;;;;;21.10;53.77;101985.81;5004842;28;124641;-68
2021/06/15 05:10:24;;;;;;;13.63;8.15;;;;;;;21.13;53.67;101988.28;5009100;28;123724;-68
2021/06/15 05:12:53;;;;;;;13.80;8.10;;;;;;;21.15;53.41;101997.13;4995907;28;114514;-68
2021/06/15 05:15:26;;;;;;;12.68;8.00;;;;;;;21.17;53.24;102008.66;5009311;28;113824;-69
2021/06/15 05:17:55;;;;;;;12.60;8.13;;;;;;;21.16;53.03;102006.94;5011028;28;124078;-69
2021/06/15 05:20:25;;;;;;;12.90;7.97;;;;;;;21.13;53.09;102012.53;5010109;28;124289;-69
2021/06/15 05:23:00;;;;;;;13.52;7.25;;;;;;;21.07;52.99;102012.97;5020244;28;114578;-68
2021/06/15 05:25:28;;;;;;;12.75;8.10;;;;;;;21.05;53.12;102025.69;5003383;28;113785;-68
2021/06/15 05:27:55;;;;;;;13.32;8.35;;;;;;;21.04;53.08;102026.66;5013960;28;124260;-69
2021/06/15 05:30:24;;;;;;;12.48;7.72;;;;;;;21.03;53.25;102027.63;5018559;28;124019;-68
2021/06/15 05:32:51;;;;;;;12.50;7.35;;;;;;;21.02;53.20;102036.69;5022833;28;114327;-68
2021/06/15 05:35:19;;;;;;;11.90;7.72;;;;;;;21.02;53.03;102031.31;5010579;28;114041;-68
2021/06/15 05:37:47;;;;;;;11.18;7.35;;;;;;;21.03;52.95;102038.41;5012830;28;124178;-68
2021/06/15 05:40:16;;;;;;;11.52;6.63;;;;;;;21.04;52.88;102040.13;5013454;28;124050;-69
2021/06/15 05:42:44;;;;;;;10.50;6.88;;;;;;;21.04;52.86;102040.13;5015223;28;114573;-67
2021/06/15 05:45:12;;;;;;;14.68;6.88;;;;;;;21.07;52.70;102039.91;5001708;28;114408;-68
2021/06/15 05:47:41;;;;;;;10.52;6.45;;;;;;;21.09;52.60;102046.03;5012846;28;123413;-68
2021/06/15 05:50:09;;;;;;;13.35;6.78;;;;;;;21.13;52.47;102044.84;5011887;28;124098;-68
2021/06/15 05:52:37;;;;;;;8.98;5.80;;;;;;;21.16;52.22;102050.03;5013325;28;114695;-68
2021/06/15 05:55:04;;;;;;;9.60;5.75;;;;;;;21.19;52.11;102044.44;5011603;28;115241;-68
2021/06/15 05:57:32;;;;;;;7.80;5.53;;;;;;;21.22;51.92;102039.81;5023824;28;124228;-68
2021/06/15 05:59:59;;;;;;;13.23;6.05;;;;;;;21.25;51.72;102036.88;5015395;28;124237;-68
2021/06/15 06:02:27;;;;;;;8.52;5.72;;;;;;;21.30;51.72;102037.41;5012227;28;114053;-68
2021/06/15 06:10:11;;;;;;;9.90;4.78;;;;;;;21.42;50.81;102039.25;5006679;28;124131;-68
2021/06/15 06:12:38;;;;;;;7.38;3.65;;;;;;;21.44;50.22;102037.31;5002796;28;114588;-68
2021/06/15 06:15:08;;;;;;;8.50;3.83;;;;;;;21.46;50.16;102035.38;5013652;28;114105;-68
2021/06/15 06:17:35;;;;;;;8.80;3.40;;;;;;;21.48;49.39;102033.44;5012251;28;124972;-68
2021/06/15 06:20:10;;;;;;;6.70;3.75;;;;;;;21.50;49.38;102042.25;5014321;28;123860;-68
2021/06/15 06:22:39;;;;;;;6.25;3.90;;;;;;;21.54;49.36;102053.69;5005162;28;113894;-68
2021/06/15 06:25:09;;;;;;;6.32;3.70;;;;;;;21.56;48.81;102057.97;5013549;28;113140;-68
2021/06/15 06:27:36;;;;;;;7.43;4.30;;;;;;;21.61;49.18;102056.81;5011837;28;123201;-69
2021/06/15 06:30:05;;;;;;;5.72;3.38;;;;;;;21.63;48.63;102063.81;5011450;28;124023;-69
2021/06/15 06:32:34;;;;;;;5.45;3.30;;;;;;;21.66;48.59;102049.22;5011912;28;114757;-69
2021/06/15 06:35:03;;;;;;;8.57;3.30;;;;;;;21.71;48.16;102049.75;5012111;28;114116;-69
2021/06/15 06:37:31;;;;;;;4.78;2.85;;;;;;;21.75;47.68;102062.91;5012552;28;123976;-69
2021/06/15 06:39:58;;;;;;;5.88;3.05;;;;;;;21.80;47.24;102065.28;5010989;28;123945;-70
2021/06/15 06:42:26;;;;;;;4.75;2.60;;;;;;;21.81;46.99;102056.19;5011629;28;115536;-69
2021/06/15 06:44:53;;;;;;;7.32;3.05;;;;;;;21.84;46.85;102055.97;5013060;28;114245;-69
2021/06/15 06:47:20;;;;;;;4.20;2.88;;;;;;;21.90;46.85;102055.53;5006044;28;125061;-69
2021/06/15 06:49:47;;;;;;;6.28;3.03;;;;;;;21.95;46.37;102047.09;4998076;28;123951;-70
2021/06/15 06:52:15;;;;;;;6.55;3.22;;;;;;;21.97;46.21;102055.94;5002890;28;113034;-69
2021/06/15 06:54:42;;;;;;;6.72;3.35;;;;;;;22.00;46.21;102065.63;5011519;28;114357;-70
2021/06/15 06:57:09;;;;;;;6.32;3.40;;;;;;;22.02;46.19;102059.16;5011839;28;124080;-69
2021/06/15 06:59:37;;;;;;;5.95;3.72;;;;;;;22.05;46.45;102068.84;5012862;28;123370;-69
2021/06/15 07:02:04;;;;;;;8.15;3.50;;;;;;;22.10;46.58;102066.69;5012467;28;115446;-69
2021/06/15 07:04:31;;;;;;;7.15;3.40;;;;;;;22.13;46.25;102077.22;5011707;28;113984;-69
2021/06/15 07:07:00;;;;;;;7.13;3.55;;;;;;;22.19;46.34;102076.81;5005472;28;124323;-69
2021/06/15 07:09:27;;;;;;;8.43;3.42;;;;;;;22.21;45.85;102069.44;5012644;28;123155;-70
2021/06/15 07:11:54;;;;;;;6.35;3.30;;;;;;;22.25;45.83;102076.38;5011495;28;114543;-69
2021/06/15 07:14:22;;;;;;;6.80;3.30;;;;;;;22.29;46.25;102077.00;5012189;28;113368;-69
2021/06/15 07:16:49;;;;;;;6.45;3.40;;;;;;;22.30;45.93;102079.59;5011571;28;124423;-70
2021/06/15 07:19:16;;;;;;;7.25;3.55;;;;;;;22.34;45.57;102081.06;5009204;28;124652;-70
2021/06/15 07:21:43;;;;;;;7.45;3.55;;;;;;;22.39;45.57;102077.16;5012725;28;114326;-72
2021/06/15 07:24:11;;;;;;;7.30;3.40;;;;;;;22.42;45.58;102082.34;5010916;28;113905;-72
2021/06/15 07:26:38;;;;;;;8.82;3.80;;;;;;;22.42;45.85;102087.75;5013377;28;124020;-72
2021/06/15 07:29:05;;;;;;;6.88;3.60;;;;;;;22.45;45.46;102087.47;5013054;28;124339;-72
2021/06/15 07:31:32;;;;;;;6.72;3.47;;;;;;;22.45;46.00;102087.47;5010032;28;115166;-72
2021/06/15 07:34:00;;;;;;;6.15;3.30;;;;;;;22.48;46.07;102076.47;5011099;28;115066;-72
2021/06/15 07:36:27;;;;;;;7.13;3.30;;;;;;;22.52;46.09;102083.34;5011175;28;123176;-72
2021/06/15 07:38:54;;;;;;;7.15;3.30;;;;;;;22.57;45.33;102086.56;5010048;28;124150;-72
2021/06/15 07:41:21;;;;;;;7.88;3.30;;;;;;;22.59;45.33;102084.59;5012957;28;114612;-72
2021/06/15 07:43:48;;;;;;;7.07;3.40;;;;;;;22.62;45.42;102089.78;5022128;28;114042;-72
2021/06/15 07:46:15;;;;;;;6.38;3.63;;;;;;;22.65;45.24;102100.34;5012848;22;124201;-71
2021/06/15 07:48:43;;;;;;;7.57;3.72;;;;;;;22.68;45.15;102094.72;4964212;28;124313;-71
2021/06/15 07:51:11;;;;;;;6.22;3.40;;;;;;;22.73;45.44;102087.13;4965282;28;115508;-71
2021/06/15 07:53:39;;;;;;;5.38;2.90;;;;;;;22.84;45.00;102093.53;4948019;28;113887;-71
2021/06/15 07:56:06;;;;;;;6.07;2.83;;;;;;;22.92;45.12;102091.97;4951731;28;123738;-71
2021/06/15 07:58:33;;;;;;;4.63;2.72;;;;;;;22.98;44.92;102096.03;4950484;28;122866;-70
2021/06/15 08:01:00;;;;;;;6.30;2.80;;;;;;;23.07;44.23;102083.66;4934424;28;113074;-71
2021/06/15 08:03:27;;;;;;;7.28;3.00;;;;;;;23.15;44.48;102085.75;4939330;28;113563;-71
2021/06/15 08:05:55;;;;;;;5.13;2.47;;;;;;;23.29;44.86;102090.94;4950759;28;124350;-71
2021/06/15 08:08:22;;;;;;;5.70;2.90;;;;;;;23.44;44.93;102092.41;4951371;28;124041;-71
2021/06/15 08:10:49;;;;;;;8.98;2.80;;;;;;;23.60;43.71;102080.34;4933790;28;113380;-71
2021/06/15 08:13:16;;;;;;;5.35;2.28;;;;;;;23.74;42.80;102082.81;4950890;28;114837;-71
2021/06/15 08:15:48;;;;;;;5.00;1.67;;;;;;;23.86;41.74;102075.56;4950731;28;124287;-70
2021/06/15 08:18:16;;;;;;;5.03;2.05;;;;;;;23.96;41.04;102075.66;4950799;28;124111;-71
2021/06/15 08:20:44;;;;;;;3.28;1.88;;;;;;;24.02;40.93;102081.44;4949757;28;115967;-70
2021/06/15 08:23:12;;;;;;;6.25;2.10;;;;;;;24.11;40.87;102074.41;4938939;28;115406;-71
2021/06/15 08:25:39;;;;;;;4.18;2.03;;;;;;;24.20;41.03;102079.03;4951544;28;124370;-71
2021/06/15 08:28:08;;;;;;;5.63;2.20;;;;;;;24.32;40.47;102081.69;4951095;28;124264;-70
2021/06/15 08:30:35;;;;;;;4.53;2.13;;;;;;;24.43;40.68;102078.94;4934940;28;114487;-71
2021/06/15 08:33:03;;;;;;;5.97;2.17;;;;;;;24.54;40.25;102076.22;4951999;28;114142;-71
2021/06/15 08:35:31;;;;;;;5.47;2.25;;;;;;;24.62;40.16;102073.75;4933600;28;124558;-70
2021/06/15 08:37:59;;;;;;;4.55;2.10;;;;;;;24.70;40.11;102074.94;4950705;28;124158;-70
2021/06/15 08:40:27;;;;;;;4.38;2.00;;;;;;;24.72;40.07;102078.38;4917660;28;113496;-71
2021/06/15 08:42:54;;;;;;;7.85;2.22;;;;;;;24.73;40.05;102074.66;4949591;28;114529;-70
2021/06/15 08:45:22;;;;;;;4.07;1.80;;;;;;;24.75;39.32;102072.66;4938005;28;124235;-71
2021/06/15 08:47:51;;;;;;;3.25;1.58;;;;;;;24.77;39.82;102076.09;4948582;28;124490;-71
2021/06/15 08:50:21;;;;;;;4.78;1.67;;;;;;;24.79;39.58;102074.13;4932440;28;113570;-71
2021/06/15 08:52:49;;;;;;;5.45;1.65;;;;;;;24.83;39.45;102070.19;4951701;28;113800;-71
2021/06/15 08:55:18;;;;;;;5.85;2.00;;;;;;;24.89;39.80;102072.34;4932587;28;123358;-70
2021/06/15 08:57:55;;;;;;;5.32;1.63;;;;;;;24.95;39.74;102071.81;4932714;28;123617;-71
2021/06/15 09:00:22;;;;;;;5.88;1.90;;;;;;;25.01;39.42;102067.72;4948383;28;114414;-71
2021/06/15 09:02:49;;;;;;;5.18;1.90;;;;;;;25.07;38.94;102072.59;4934204;28;114340;-70
2021/06/15 09:05:18;;;;;;;6.00;2.30;;;;;;;25.12;39.08;102064.06;4950184;28;123950;-70
2021/06/15 09:08:13;;;;;;;4.53;1.95;;;;;;;25.18;39.26;102068.94;4950299;28;123871;-71
2021/06/15 09:10:43;;;;;;;9.17;1.80;;;;;;;25.25;38.68;102072.88;4942673;28;115001;-71
2021/06/15 09:13:33;;;;;;;7.47;2.00;;;;;;;25.27;38.70;102062.75;4936568;28;114379;-70
2021/06/15 09:16:16;;;;;;;5.60;2.05;;;;;;;25.30;38.48;102065.19;4952870;28;124740;-71
2021/06/15 09:18:43;;;;;;;7.95;2.22;;;;;;;25.35;38.80;102057.47;4953749;28;123790;-70
2021/06/15 09:21:11;;;;;;;6.07;2.00;;;;;;;25.39;38.92;102053.53;4935371;28;113850;-71
2021/06/15 09:23:38;;;;;;;6.88;2.22;;;;;;;25.47;39.10;102052.84;4928293;28;114211;-70
2021/06/15 09:26:06;;;;;;;5.93;1.90;;;;;;;25.59;38.21;102056.31;4953260;28;124866;-70
2021/06/15 09:28:34;;;;;;;5.18;1.75;;;;;;;25.71;38.03;102062.47;4953877;28;123771;-70
2021/06/15 09:31:06;;;;;;;5.00;1.95;;;;;;;25.78;38.58;102064.47;4953586;28;114458;-71
2021/06/15 09:33:36;;;;;;;3.92;1.75;;;;;;;25.93;38.54;102064.13;4951677;28;114477;-70
2021/06/15 09:36:05;;;;;;;5.32;2.10;;;;;;;26.07;37.16;102061.03;4952619;28;123666;-71
2021/06/15 09:38:34;;;;;;;6.28;2.00;;;;;;;26.16;37.55;102065.59;4953527;28;124490;-71
2021/06/15 09:41:01;;;;;;;4.28;1.85;;;;;;;26.23;37.21;102068.59;4936387;28;113813;-71
2021/06/15 09:43:28;;;;;;;5.10;1.75;;;;;;;26.32;36.71;102066.91;4940591;28;113801;-70
2021/06/15 09:45:55;;;;;;;3.85;1.83;;;;;;;26.38;36.08;102060.88;4952845;28;124644;-71
2021/06/15 09:48:30;;;;;;;6.53;2.30;;;;;;;26.42;36.43;102065.03;4950898;28;124138;-70
2021/06/15 09:51:11;;;;;;;5.93;2.05;;;;;;;26.50;35.85;102059.72;4947935;28;112605;-71
2021/06/15 09:53:43;;;;;;;7.03;1.95;;;;;;;26.58;35.62;102064.47;4953305;28;113927;-71
2021/06/15 09:56:15;;;;;;;6.20;1.98;;;;;;;26.66;35.87;102055.59;4948474;28;123111;-70
2021/06/15 09:58:48;;;;;;;6.53;1.92;;;;;;;26.72;35.56;102049.59;4953205;28;124559;-71
2021/06/15 10:01:39;;;;;;;3.55;1.48;;;;;;;26.82;35.59;102055.84;4951690;28;115067;-71
2021/06/15 10:04:23;;;;;;;6.50;1.70;;;;;;;26.87;34.72;102056.28;4936320;28;114087;-71
2021/06/15 10:06:58;;;;;;;5.40;1.73;;;;;;;26.90;35.14;102053.28;4952776;28;123899;-71
2021/06/15 10:09:28;;;;;;;5.18;1.42;;;;;;;26.95;34.30;102050.94;4935835;28;123270;-71
2021/06/15 10:11:57;;;;;;;3.40;1.35;;;;;;;26.99;33.75;102057.84;4932784;28;113587;-70
2021/06/15 10:14:26;;;;;;;7.57;1.63;;;;;;;27.05;34.11;102050.94;4952233;28;114782;-69
2021/06/15 10:16:55;;;;;;;3.40;1.10;;;;;;;27.14;34.21;102051.91;4952724;28;124017;-68
2021/06/15 10:19:23;;;;;;;2.95;1.30;;;;;;;27.26;34.52;102058.06;4939383;28;123132;-71
2021/06/15 10:21:51;;;;;;;5.00;1.27;;;;;;;27.35;33.86;102063.47;4954344;28;114271;-71
2021/06/15 10:24:22;;;;;;;4.82;1.35;;;;;;;27.37;33.73;102061.44;4952799;28;113427;-71
2021/06/15 10:27:02;;;;;;;5.05;1.23;;;;;;;27.42;34.01;102051.97;4952167;28;123962;-71
2021/06/15 10:29:29;;;;;;;3.90;1.35;;;;;;;27.44;34.50;102041.78;4952121;28;122909;-71
2021/06/15 10:31:58;;;;;;;4.57;1.30;;;;;;;27.49;33.89;102048.50;4936013;28;114428;-71
2021/06/15 10:34:44;;;;;;;4.15;1.30;;;;;;;27.58;34.53;102046.75;4952805;28;114165;-71
2021/06/15 10:37:37;;;;;;;3.35;1.52;;;;;;;27.63;33.70;102049.84;4952533;28;123899;-71
2021/06/15 10:40:11;;;;;;;3.90;1.10;;;;;;;27.68;34.28;102047.53;4951161;28;124949;-71
2021/06/15 10:42:40;;;;;;;2.65;1.10;;;;;;;27.76;33.97;102042.19;4951440;28;114286;-71
2021/06/15 10:45:13;;;;;;;4.50;1.20;;;;;;;27.79;32.93;102037.44;4935107;28;114885;-71
2021/06/15 10:47:41;;;;;;;3.42;1.10;;;;;;;27.85;32.21;102053.16;4935255;28;125005;-71
2021/06/15 10:50:10;;;;;;;4.47;1.40;;;;;;;27.82;32.42;102037.13;4934980;28;122742;-71
2021/06/15 10:52:58;;;;;;;4.80;1.10;;;;;;;27.80;32.15;102033.69;4934893;28;114479;-70
2021/06/15 10:55:48;;;;;;;4.57;1.20;;;;;;;27.81;32.43;102038.16;4949091;28;114950;-71
2021/06/15 10:58:34;;;;;;;2.33;1.13;;;;;;;27.85;32.05;102036.81;4951505;28;124395;-71
2021/06/15 11:01:28;;;;;;;6.53;1.60;;;;;;;27.88;32.90;102037.38;4934918;28;123343;-71
2021/06/15 11:03:58;;;;;;;6.75;1.70;;;;;;;27.91;32.58;102036.22;4913207;28;113087;-71
2021/06/15 11:06:28;;;;;;;3.70;1.65;;;;;;;27.93;33.01;102028.75;4923528;28;113072;-70
2021/06/15 11:09:15;;;;;;;5.35;1.70;;;;;;;27.94;33.47;102041.38;4934770;28;125052;-71
2021/06/15 11:11:47;;;;;;;3.90;1.60;;;;;;;27.95;32.56;102033.06;4935116;28;124126;-71
2021/06/15 11:14:20;;;;;;;3.92;1.48;;;;;;;27.95;32.32;102032.19;4949937;28;114117;-71
2021/06/15 11:16:52;;;;;;;4.63;1.58;;;;;;;27.96;32.39;102023.03;4935090;28;114168;-71
2021/06/15 11:19:22;;;;;;;3.67;1.55;;;;;;;28.00;32.49;102029.88;4951058;28;124277;-71
2021/06/15 11:22:07;;;;;;;3.40;1.50;;;;;;;28.06;32.49;102026.50;4952703;28;125055;-71
2021/06/15 11:25:01;;;;;;;3.35;1.60;;;;;;;28.12;32.33;102023.19;4934807;28;114108;-71
2021/06/15 11:27:28;;;;;;;13.88;1.95;;;;;;;28.19;32.20;102022.56;4951858;28;113825;-71
2021/06/15 11:29:57;;;;;;;3.97;1.55;;;;;;;28.24;31.91;102025.69;4951687;28;124065;-71
2021/06/15 11:32:27;;;;;;;4.88;1.60;;;;;;;28.25;31.71;102016.47;4952094;28;124209;-71
2021/06/15 11:35:04;;;;;;;5.50;1.80;;;;;;;28.25;33.18;102013.75;4933053;28;113233;-69
2021/06/15 11:37:37;;;;;;;4.63;1.70;;;;;;;28.29;32.52;102006.97;4934963;28;113177;-71
2021/06/15 11:40:10;;;;;;;7.38;2.35;;;;;;;28.34;32.50;102018.25;4933158;28;124013;-71